Stations météo

Publicité
Bourg-St-Maurice, France (7497): Température de l'air & dewpoint: 14.08.2019 13:00:00 - 20.08.2019 13:00:00 (CEST)Bourg-St-Maurice, France (7497): Température de l'air -20cm & Température de l'air -100cm: 14.08.2019 13:00:00 - 20.08.2019 13:00:00 (CEST)Bourg-St-Maurice, France (7497): Vitesse du vent & gusts: 14.08.2019 13:00:00 - 20.08.2019 13:00:00 (CEST)Bourg-St-Maurice, France (7497): Direction du vent: 14.08.2019 13:00:00 - 20.08.2019 13:00:00 (CEST)Bourg-St-Maurice, France (7497): Ensoleillement: 14.08.2019 13:00:00 - 20.08.2019 13:00:00 (CEST)Bourg-St-Maurice, France (7497): Quantités de précipitations: 14.08.2019 13:00:00 - 20.08.2019 13:00:00 (CEST)
Date & Time tt [°C] td [°C] tt -20cm [°C] tt -100cm [°C] ff [km/h] ff [knt] fx [km/h] fx [knt] dd sd [min] rr [mm]
20.08.2019 13:00:00 16,6 14,8 22,3 21,2 6 4 22 12 SW 0 0,0
20.08.2019 12:00:00 16,5 15,5 22,4 21,2 8 4 19 10 S 0 0,0
20.08.2019 11:00:00 15,8 15,2 22,5 21,1 3 2 13 7 SE 0 1,4
20.08.2019 10:00:00 15,6 15,0 22,6 21,2 6 4 13 7 SW 0 1,2
20.08.2019 09:00:00 15,6 14,8 22,7 21,2 4 2 14 7 W 0 0,6
20.08.2019 08:00:00 16,0 15,4 22,8 21,1 2 1 11 6 SE 0 0,2
20.08.2019 07:00:00 16,1 15,1 22,9 21,2 4 2 11 6 SW 0 0,0
20.08.2019 06:00:00 16,0 15,2 23,0 21,2 3 2 12 6 S 0 0,0
20.08.2019 05:00:00 16,3 15,2 23,1 21,1 2 1 13 7 ESE 0 0,0
20.08.2019 04:00:00 16,3 15,3 23,2 21,1 5 3 13 7 SSW 0 0,0
20.08.2019 03:00:00 16,8 15,7 23,3 21,1 4 2 9 5 S 0 0,0
20.08.2019 02:00:00 17,2 15,4 23,4 21,1 4 2 11 6 SE 0 0,2
20.08.2019 01:00:00 17,6 14,9 23,6 21,2 3 2 8 4 WSW 0 0,0
20.08.2019 00:00:00 17,8 14,9 23,7 21,1 3 1 10 5 S 0 0,0
19.08.2019 23:00:00 18,1 15,2 23,8 21,1 2 1 11 6 W 0 0,0
19.08.2019 22:00:00 18,6 15,7 23,9 21,2 5 3 10 6 SW 0 0,0
19.08.2019 21:00:00 19,2 15,7 23,9 21,2 4 2 13 7 W 0 0,0
19.08.2019 20:00:00 20,3 15,5 23,9 21,1 4 2 10 5 WNW 0 0,0
19.08.2019 19:00:00 21,5 15,8 23,8 21,1 5 3 8 5 W 13 0,0
19.08.2019 18:00:00 24,9 14,1 23,7 21,1 6 4 18 10 SW 44 0,0
19.08.2019 17:00:00 25,5 15,2 23,6 21,1 6 4 18 10 SSW 49 0,0
19.08.2019 16:00:00 24,8 13,7 23,4 21,1 4 2 8 4 SSW 29 0,0
19.08.2019 15:00:00 24,1 15,0 23,3 21,1 5 3 13 7 SE 36 0,0
19.08.2019 14:00:00 20,3 16,3 23,2 21,1 8 4 16 9 N 10 0,6
19.08.2019 13:00:00 19,6 16,1 23,1 21,0 5 3 16 9 SW 8 0,0
19.08.2019 12:00:00 19,5 15,8 23,2 21,1 3 2 7 4 N 7 0,0
19.08.2019 11:00:00 18,2 15,8 23,2 21,1 4 2 8 4 WSW 3 0,2
19.08.2019 10:00:00 17,8 15,6 23,3 21,1 2 1 8 4 SSW 4 0,0
19.08.2019 09:00:00 17,5 15,5 23,4 21,0 4 2 13 7 NNE 22 0,2
19.08.2019 08:00:00 16,0 15,0 23,6 21,1 8 4 23 12 NE 0 9,5
19.08.2019 07:00:00 18,2 15,3 23,7 21,1 5 3 9 5 WSW 0 0,2
19.08.2019 06:00:00 18,6 14,1 23,8 21,1 2 1 7 4 WSW 0 0,0
19.08.2019 05:00:00 18,7 13,8 23,9 21,1 5 3 8 4 W 0 0,0
19.08.2019 04:00:00 18,7 12,4 24,0 21,1 2 1 5 3 N 0 0,0
19.08.2019 03:00:00 18,7 12,9 24,1 21,1 2 1 6 3 SW 0 0,0
19.08.2019 02:00:00 19,5 12,3 24,2 21,1 3 2 8 4 N 0 0,0
19.08.2019 01:00:00 20,3 12,3 24,2 21,1 4 2 8 4 NW 0 0,0
19.08.2019 00:00:00 21,0 12,2 24,3 21,1 7 4 14 8 WSW 0 0,0
18.08.2019 23:00:00 22,1 12,1 24,4 21,1 4 2 11 6 WNW 0 0,0
18.08.2019 22:00:00 22,4 11,8 24,3 21,1 3 2 10 5 W 0 0,0
18.08.2019 21:00:00 24,3 11,6 24,3 21,1 4 2 20 11 WSW 0 0,0
18.08.2019 20:00:00 26,2 10,4 24,2 21,1 6 3 13 7 W 0 0,0
18.08.2019 19:00:00 28,7 9,4 24,1 21,1 6 3 14 8 W 53 0,0
18.08.2019 18:00:00 33,1 7,1 23,9 21,1 6 3 20 11 WSW 57 0,0
18.08.2019 17:00:00 34,0 7,1 23,6 21,1 10 5 34 18 SSW 51 0,0
18.08.2019 16:00:00 34,7 5,2 23,2 21,1 9 5 33 18 SSW 58 0,0
18.08.2019 15:00:00 34,5 7,5 22,7 21,1 11 6 32 17 S 60 0,0
18.08.2019 14:00:00 33,9 8,5 22,3 21,1 10 5 24 13 S 60 0,0
18.08.2019 13:00:00 31,7 8,0 22,0 21,1 6 4 14 8 S 60 0,0
18.08.2019 12:00:00 29,2 8,8 21,9 21,1 4 2 8 4 ESE 60 0,0
18.08.2019 11:00:00 25,0 9,3 21,9 21,1 2 1 6 4 SSE 60 0,0
18.08.2019 10:00:00 21,7 10,2 22,0 21,1 3 2 5 3 S 60 0,0
18.08.2019 09:00:00 18,9 9,4 22,1 21,1 3 1 6 3 E 60 0,0
18.08.2019 08:00:00 15,7 9,8 22,3 21,1 4 2 8 4 NNE 29 0,0
18.08.2019 07:00:00 14,1 9,1 22,4 21,1 3 2 8 4 NNW 0 0,0
18.08.2019 06:00:00 13,7 9,3 22,6 21,1 4 2 6 3 N 0 0,0
18.08.2019 05:00:00 14,6 9,6 22,7 21,1 3 2 8 4 SW 0 0,0
18.08.2019 04:00:00 15,3 9,9 22,9 21,1 2 1 5 3 NNW 0 0,0
18.08.2019 03:00:00 16,0 10,1 23,0 21,1 3 2 5 3 NW 0 0,0
18.08.2019 02:00:00 16,7 10,1 23,1 21,2 2 1 4 2 NW 0 0,0
18.08.2019 01:00:00 17,4 10,3 23,2 21,2 3 1 7 4 NW 0 0,0
18.08.2019 00:00:00 18,2 10,6 23,3 21,2 4 2 6 4 NW 0 0,0
17.08.2019 23:00:00 19,1 9,8 23,3 21,2 4 2 10 5 N 0 0,0
17.08.2019 22:00:00 20,2 10,0 23,4 21,2 2 1 6 3 W 0 0,0
17.08.2019 21:00:00 22,4 9,9 23,4 21,2 2 1 11 6 NE 0 0,0
17.08.2019 20:00:00 23,7 10,0 23,3 21,2 6 3 14 8 W 0 0,0
17.08.2019 19:00:00 26,4 10,5 23,2 21,2 5 3 14 7 W 39 0,0
17.08.2019 18:00:00 28,8 9,5 23,0 21,2 6 4 21 11 WSW 21 0,0
17.08.2019 17:00:00 29,2 8,3 22,7 21,2 8 4 34 18 SW 18 0,0
17.08.2019 16:00:00 30,4 7,6 22,4 21,2 12 7 35 19 SSW 57 0,0
17.08.2019 15:00:00 30,0 3,9 22,1 21,2 10 6 24 13 S 49 0,0
17.08.2019 14:00:00 28,2 6,3 21,8 21,2 6 4 16 9 S 35 0,0
17.08.2019 13:00:00 26,8 5,1 21,5 21,2 5 3 10 5 S 54 0,0
17.08.2019 12:00:00 24,3 5,6 21,4 21,2 6 3 12 6 S 58 0,0
17.08.2019 11:00:00 21,8 6,1 21,4 21,2 3 1 9 5 S 54 0,0
17.08.2019 10:00:00 17,0 6,2 21,5 21,2 4 2 9 5 NNE 45 0,0
17.08.2019 09:00:00 12,8 7,0 21,7 21,2 2 1 5 3 NNE 0 0,0
17.08.2019 08:00:00 11,6 6,3 21,9 21,2 3 1 6 3 N 6 0,0
17.08.2019 07:00:00 10,6 5,6 22,1 21,2 2 1 7 4 NW 0 0,0
17.08.2019 06:00:00 10,9 5,8 22,3 21,2 2 1 5 3 NW 0 0,0
17.08.2019 05:00:00 11,5 5,6 22,4 21,2 3 2 5 3 NW 0 0,0
17.08.2019 04:00:00 11,7 5,8 22,6 21,2 4 2 6 4 NNE 0 0,0
17.08.2019 03:00:00 12,4 5,5 22,8 21,2 4 2 6 3 NW 0 0,0
17.08.2019 02:00:00 13,1 6,0 23,0 21,2 2 1 7 4 NNW 0 0,0
17.08.2019 01:00:00 13,7 6,1 23,1 21,3 2 1 6 3 NNE 0 0,0
17.08.2019 00:00:00 14,8 6,4 23,2 21,2 0 0 6 3 N 0 0,0
16.08.2019 23:00:00 15,5 6,0 23,3 21,3 2 1 9 5 NNE 0 0,0
16.08.2019 22:00:00 17,2 5,2 23,4 21,3 4 2 12 7 NW 0 0,0
16.08.2019 21:00:00 18,1 5,3 23,4 21,3 4 2 12 6 WNW 0 0,0
16.08.2019 20:00:00 20,4 4,4 23,4 21,3 8 4 13 7 W 0 0,0
16.08.2019 19:00:00 23,4 4,8 23,3 21,2 5 3 20 11 W 43 0,0
16.08.2019 18:00:00 25,5 4,0 23,1 21,2 8 4 35 19 SW 45 0,0
16.08.2019 17:00:00 27,5 3,9 22,9 21,3 11 6 27 14 S 60 0,0
16.08.2019 16:00:00 26,4 7,9 22,5 21,3 10 5 22 12 SSE 60 0,0
16.08.2019 15:00:00 26,8 5,7 22,2 21,3 8 4 15 8 S 60 0,0
16.08.2019 14:00:00 25,2 4,3 21,8 21,3 6 3 15 8 S 60 0,0
16.08.2019 13:00:00 23,5 8,0 21,6 21,3 5 3 11 6 S 60 0,0
16.08.2019 12:00:00 21,2 7,4 21,5 21,3 5 3 11 6 S 57 0,0
16.08.2019 11:00:00 18,4 8,6 21,5 21,3 4 2 10 6 S 60 0,0
16.08.2019 10:00:00 16,0 9,4 21,6 21,3 5 3 9 5 S 60 0,0
16.08.2019 09:00:00 14,8 8,7 21,7 21,3 4 2 7 4 ENE 60 0,0
16.08.2019 08:00:00 11,8 8,8 21,9 21,3 2 1 5 3 ESE 30 0,0
16.08.2019 07:00:00 10,6 8,4 22,1 21,3 0 0 6 3 N 0 0,0
16.08.2019 06:00:00 11,6 8,8 22,2 21,3 3 1 9 5 NNE 0 0,0
16.08.2019 05:00:00 12,1 9,1 22,4 21,3 0 0 6 3 N 0 0,0
16.08.2019 04:00:00 12,2 8,8 22,5 21,4 0 0 6 4 N 0 0,0
16.08.2019 03:00:00 13,0 8,9 22,7 21,4 4 2 8 4 WNW 0 0,0
16.08.2019 02:00:00 13,5 9,3 22,8 21,3 4 2 8 4 W 0 0,0
16.08.2019 01:00:00 14,0 9,0 23,0 21,4 4 2 9 5 W 0 0,0
16.08.2019 00:00:00 14,8 9,4 23,0 21,4 5 3 9 5 W 0 0,0
15.08.2019 23:00:00 16,4 9,1 23,2 21,4 4 2 11 6 W 0 0,0
15.08.2019 22:00:00 17,6 8,7 23,2 21,4 5 3 16 9 W 0 0,0
15.08.2019 21:00:00 19,7 8,7 23,2 21,4 6 3 23 13 E 0 0,0
15.08.2019 20:00:00 21,3 8,5 23,2 21,4 6 4 20 11 S 0 0,0
15.08.2019 19:00:00 22,6 8,3 23,1 21,4 7 4 31 17 S 50 0,0
15.08.2019 18:00:00 24,3 8,7 23,0 21,4 14 7 30 16 SSW 56 0,0
15.08.2019 17:00:00 25,7 7,3 22,8 21,4 9 5 30 16 SSW 52 0,0
15.08.2019 16:00:00 23,8 8,2 22,5 21,4 15 8 40 21 SSW 22 0,0
15.08.2019 15:00:00 24,6 7,7 22,3 21,4 12 7 41 22 SSW 21 0,0
15.08.2019 14:00:00 26,1 9,4 22,0 21,4 16 8 42 23 SSW 45 0,0
15.08.2019 13:00:00 24,6 10,1 21,7 21,4 9 5 22 12 S 34 0,0
15.08.2019 12:00:00 22,9 8,2 21,6 21,4 9 5 17 9 S 60 0,0
15.08.2019 11:00:00 19,9 8,2 21,5 21,4 5 3 12 6 S 60 0,0
15.08.2019 10:00:00 17,3 8,7 21,6 21,5 5 3 13 7 E 35 0,0
15.08.2019 09:00:00 14,0 9,0 21,7 21,5 2 1 7 4 SE 1 0,0
15.08.2019 08:00:00 12,5 9,0 21,9 21,5 3 1 7 4 N 33 0,0
15.08.2019 07:00:00 12,0 8,5 22,0 21,5 2 1 7 4 SSE 4 0,0
15.08.2019 06:00:00 11,5 8,2 22,2 21,5 2 1 5 3 NW 0 0,0
15.08.2019 05:00:00 11,4 8,3 22,4 21,5 3 1 4 2 N 0 0,0
15.08.2019 04:00:00 11,4 8,4 22,5 21,5 0 0 4 2 N 0 0,0
15.08.2019 03:00:00 11,7 8,4 22,7 21,5 2 1 6 3 W 0 0,0
15.08.2019 02:00:00 12,3 8,4 22,8 21,5 3 2 5 3 N 0 0,0
15.08.2019 01:00:00 13,0 8,5 23,0 21,6 0 0 6 3 N 0 0,0
15.08.2019 00:00:00 13,9 8,5 23,2 21,6 3 1 5 3 NW 0 0,0
14.08.2019 23:00:00 15,0 8,2 23,3 21,5 3 1 8 5 N 0 0,0
14.08.2019 22:00:00 16,2 7,9 23,4 21,6 3 1 12 7 NNW 0 0,0
14.08.2019 21:00:00 17,6 7,9 23,4 21,6 6 3 14 7 W 0 0,0
14.08.2019 20:00:00 19,5 6,9 23,4 21,5 9 5 21 11 WNW 2 0,0
14.08.2019 19:00:00 23,0 6,3 23,3 21,6 3 2 19 10 WSW 60 0,0
14.08.2019 18:00:00 25,1 6,3 23,2 21,6 8 4 27 15 SSW 60 0,0
14.08.2019 17:00:00 25,5 5,6 23,0 21,6 9 5 25 14 S 60 0,0
14.08.2019 16:00:00 25,5 6,2 22,6 21,6 7 4 18 10 S 60 0,0
14.08.2019 15:00:00 24,9 6,1 22,2 21,6 8 4 16 9 S 60 0,0
14.08.2019 14:00:00 23,2 4,2 21,8 21,6 4 2 15 8 S 60 0,0
14.08.2019 13:00:00 21,9 6,9 21,6 21,6 6 4 16 9 SSW 60 0,0

tt = Température de l'air
td = dewpoint
tt -20cm = Température de l'air -20cm
tt -100cm = Température de l'air -100cm
ff = Vitesse du vent
fx = gusts
dd = Direction du vent
sd = Ensoleillement
rr = Quantités de précipitations

stations d'obs. à proximité